Time;durP1;ratioP1;P1;durP2;ratioP2;P2;SDS_P1;SDS_P2;PMS_P1;PMS_P2;Temp;Humidity;BMP_temperature;BMP_pressure;BME280_temperature;BME280_humidity;BME280_pressure;Samples;Min_cycle;Max_cycle;Signal;HPM_P1;HPM_P2
2022/08/25 00:00:21;;;;;;;23.10;7.38;;;;;;;;;;5029376;28;20054;-64
2022/08/25 00:02:55;;;;;;;16.75;6.93;;;;;;;;;;4980355;28;20053;-64
2022/08/25 00:05:28;;;;;;;16.05;6.60;;;;;;;;;;5029413;28;20068;-64
2022/08/25 00:08:04;;;;;;;23.27;6.82;;;;;;;;;;5012947;28;20076;-64
2022/08/25 00:10:37;;;;;;;17.55;6.55;;;;;;;;;;5029653;28;20560;-64
2022/08/25 00:13:08;;;;;;;15.63;6.45;;;;;;;;;;5029522;28;20162;-64
2022/08/25 00:15:39;;;;;;;17.73;6.45;;;;;;;;;;5029611;28;20061;-64
2022/08/25 00:18:09;;;;;;;14.80;6.03;;;;;;;;;;5044648;28;20061;-64
2022/08/25 00:20:48;;;;;;;16.38;6.55;;;;;;;;;;5049151;28;20508;-65
2022/08/25 00:23:21;;;;;;;13.15;6.32;;;;;;;;;;5049334;28;20059;-64
2022/08/25 00:25:51;;;;;;;14.50;6.35;;;;;;;;;;5016945;28;20049;-64
2022/08/25 00:28:21;;;;;;;16.55;6.35;;;;;;;;;;5069231;28;20462;-64
2022/08/25 00:30:51;;;;;;;15.57;5.78;;;;;;;;;;5069282;28;20061;-64
2022/08/25 00:33:22;;;;;;;15.32;5.85;;;;;;;;;;5069252;28;20044;-64
2022/08/25 00:35:55;;;;;;;18.23;7.10;;;;;;;;;;5052245;28;20385;-64
2022/08/25 00:38:26;;;;;;;12.80;6.03;;;;;;;;;;5069126;28;20091;-64
2022/08/25 00:41:05;;;;;;;20.92;6.35;;;;;;;;;;5049081;28;20053;-64
2022/08/25 00:43:48;;;;;;;14.75;6.13;;;;;;;;;;5048959;28;20053;-64
2022/08/25 00:46:24;;;;;;;13.93;6.00;;;;;;;;;;5048750;28;20049;-64
2022/08/25 00:49:01;;;;;;;16.85;6.18;;;;;;;;;;5049125;28;20057;-64
2022/08/25 00:51:42;;;;;;;18.77;7.38;;;;;;;;;;5032688;28;20049;-64
2022/08/25 00:54:21;;;;;;;18.50;6.53;;;;;;;;;;5049734;28;20048;-64
2022/08/25 00:56:52;;;;;;;17.58;6.38;;;;;;;;;;5055376;28;20072;-64
2022/08/25 00:59:25;;;;;;;17.85;6.82;;;;;;;;;;5072366;28;20393;-64
2022/08/25 01:01:57;;;;;;;20.17;6.47;;;;;;;;;;5052264;28;20049;-64
2022/08/25 01:04:27;;;;;;;;;;;;;;;;;;5019653;28;20045;-64
2022/08/25 01:06:59;;;;;;;16.45;6.35;;;;;;;;;;4995658;28;20369;-64
2022/08/25 01:09:32;;;;;;;17.30;6.60;;;;;;;;;;4976451;28;20055;-64
2022/08/25 01:12:03;;;;;;;21.08;7.25;;;;;;;;;;4929638;28;20262;-64
2022/08/25 01:14:34;;;;;;;20.17;6.70;;;;;;;;;;4993092;28;20054;-64
2022/08/25 01:17:05;;;;;;;18.60;6.40;;;;;;;;;;4992493;28;20042;-64
2022/08/25 01:19:35;;;;;;;16.60;7.10;;;;;;;;;;4974461;28;20061;-64
2022/08/25 01:22:05;;;;;;;18.67;6.38;;;;;;;;;;4973431;28;20058;-64
2022/08/25 01:24:49;;;;;;;23.20;7.68;;;;;;;;;;4955776;28;20486;-64
2022/08/25 01:27:20;;;;;;;16.15;6.60;;;;;;;;;;4992324;28;20046;-64
2022/08/25 01:29:50;;;;;;;14.50;7.30;;;;;;;;;;4988521;28;20408;-64
2022/08/25 01:32:21;;;;;;;18.10;7.05;;;;;;;;;;4972897;28;20051;-64
2022/08/25 01:34:51;;;;;;;16.60;6.35;;;;;;;;;;4973198;28;20058;-64
2022/08/25 01:37:22;;;;;;;21.35;6.95;;;;;;;;;;4973118;28;20050;-64
2022/08/25 01:39:52;;;;;;;15.32;6.55;;;;;;;;;;4985221;28;20569;-64
2022/08/25 01:42:59;;;;;;;17.30;7.03;;;;;;;;;;4992254;28;20528;-64
2022/08/25 01:45:29;;;;;;;17.92;7.55;;;;;;;;;;5008988;28;20421;-64
2022/08/25 01:48:01;;;;;;;20.58;7.25;;;;;;;;;;5048591;28;20500;-64
2022/08/25 01:50:32;;;;;;;15.13;6.50;;;;;;;;;;5031397;28;20053;-64
2022/08/25 01:53:04;;;;;;;16.38;6.47;;;;;;;;;;5031496;28;20788;-64
2022/08/25 01:55:50;;;;;;;;;;;;;;;;;;5048975;28;20053;-64
2022/08/25 01:58:26;;;;;;;24.75;6.57;;;;;;;;;;5084044;28;19928;-64
2022/08/25 02:01:00;;;;;;;19.88;8.00;;;;;;;;;;5051425;28;20379;-64
2022/08/25 02:03:30;;;;;;;14.07;6.22;;;;;;;;;;5034657;28;20052;-64
2022/08/25 02:06:01;;;;;;;17.67;6.13;;;;;;;;;;5068656;28;20060;-64
2022/08/25 02:08:33;;;;;;;20.60;7.43;;;;;;;;;;5071409;28;20080;-64
2022/08/25 02:11:03;;;;;;;15.88;6.88;;;;;;;;;;5070886;28;20091;-64
2022/08/25 02:13:34;;;;;;;16.50;6.65;;;;;;;;;;5071234;28;20056;-64
2022/08/25 02:16:05;;;;;;;20.08;6.57;;;;;;;;;;5054395;28;20048;-64
2022/08/25 02:18:35;;;;;;;20.35;6.85;;;;;;;;;;5021412;28;20063;-64
2022/08/25 02:21:05;;;;;;;18.45;6.82;;;;;;;;;;5037763;28;20504;-64
2022/08/25 02:23:36;;;;;;;15.63;6.15;;;;;;;;;;5071031;28;20160;-64
2022/08/25 02:26:06;;;;;;;18.52;7.45;;;;;;;;;;5050343;28;20049;-64
2022/08/25 02:28:37;;;;;;;18.17;6.20;;;;;;;;;;5050846;28;20056;-64
2022/08/25 02:31:07;;;;;;;16.88;6.78;;;;;;;;;;5066844;28;20418;-64
2022/08/25 02:33:38;;;;;;;16.75;7.05;;;;;;;;;;5051135;28;20045;-64
2022/08/25 02:36:09;;;;;;;17.05;6.53;;;;;;;;;;5030448;28;20061;-64
2022/08/25 02:38:40;;;;;;;17.98;6.97;;;;;;;;;;5030805;28;20057;-64
2022/08/25 02:41:17;;;;;;;14.55;6.35;;;;;;;;;;5030703;28;20057;-64
2022/08/25 02:43:49;;;;;;;16.10;6.15;;;;;;;;;;5030566;28;20049;-64
2022/08/25 02:46:21;;;;;;;17.60;6.68;;;;;;;;;;5030583;28;20170;-64
2022/08/25 02:48:52;;;;;;;;;;;;;;;;;;5042763;28;20060;-64
2022/08/25 02:51:24;;;;;;;22.77;6.10;;;;;;;;;;5017071;28;20352;-65
2022/08/25 02:53:56;;;;;;;21.17;6.47;;;;;;;;;;5050334;28;20061;-64
2022/08/25 02:56:27;;;;;;;14.00;5.95;;;;;;;;;;5030110;28;20147;-64
2022/08/25 02:58:57;;;;;;;15.27;6.28;;;;;;;;;;4966479;28;20057;-64
2022/08/25 03:01:29;;;;;;;21.70;6.40;;;;;;;;;;5030249;28;20501;-64
2022/08/25 03:04:01;;;;;;;17.63;6.53;;;;;;;;;;5014239;28;20056;-64
2022/08/25 03:06:32;;;;;;;16.83;5.95;;;;;;;;;;5030137;28;20076;-64
2022/08/25 03:09:03;;;;;;;19.50;6.80;;;;;;;;;;4997339;28;20061;-64
2022/08/25 03:11:36;;;;;;;17.67;6.50;;;;;;;;;;5013756;28;20065;-64
2022/08/25 03:14:09;;;;;;;15.70;6.22;;;;;;;;;;5029543;28;20566;-64
2022/08/25 03:16:41;;;;;;;20.63;6.45;;;;;;;;;;5038099;28;20788;-64
2022/08/25 03:19:14;;;;;;;15.63;6.22;;;;;;;;;;5005787;28;20055;-64
2022/08/25 03:21:44;;;;;;;14.68;6.10;;;;;;;;;;5069830;28;20063;-64
2022/08/25 03:24:15;;;;;;;12.70;5.68;;;;;;;;;;5070093;28;20586;-64
2022/08/25 03:26:57;;;;;;;18.88;6.38;;;;;;;;;;5086224;28;20055;-64
2022/08/25 03:29:31;;;;;;;11.10;5.68;;;;;;;;;;5069862;28;20057;-64
2022/08/25 03:32:01;;;;;;;18.52;5.68;;;;;;;;;;5053511;28;20138;-64
2022/08/25 03:34:32;;;;;;;16.15;5.80;;;;;;;;;;5023764;28;20057;-64
2022/08/25 03:37:05;;;;;;;19.25;6.93;;;;;;;;;;5049780;28;20767;-64
2022/08/25 03:39:35;;;;;;;17.85;6.88;;;;;;;;;;5033529;28;20049;-64
2022/08/25 03:42:07;;;;;;;14.20;6.45;;;;;;;;;;5049691;28;20056;-64
2022/08/25 03:44:37;;;;;;;16.55;6.28;;;;;;;;;;5032771;28;20056;-63
2022/08/25 03:47:08;;;;;;;14.43;6.15;;;;;;;;;;5049271;28;20494;-64
2022/08/25 03:49:38;;;;;;;14.55;6.35;;;;;;;;;;5032829;28;20053;-64
2022/08/25 03:52:09;;;;;;;14.93;6.50;;;;;;;;;;5049390;28;20416;-64
2022/08/25 03:54:40;;;;;;;17.67;6.13;;;;;;;;;;5049618;28;20045;-64
2022/08/25 03:57:11;;;;;;;15.18;6.20;;;;;;;;;;5049538;28;20065;-64
2022/08/25 03:59:41;;;;;;;16.63;6.72;;;;;;;;;;5017436;28;20056;-64
2022/08/25 04:02:11;;;;;;;14.60;6.05;;;;;;;;;;5049354;28;20044;-64
2022/08/25 04:04:42;;;;;;;13.57;6.10;;;;;;;;;;5075340;28;20059;-64
2022/08/25 04:07:14;;;;;;;14.15;6.22;;;;;;;;;;5105942;28;20075;-64
2022/08/25 04:09:44;;;;;;;14.73;5.63;;;;;;;;;;5106265;28;20423;-64
2022/08/25 04:12:14;;;;;;;18.35;6.00;;;;;;;;;;5089546;28;20191;-64
2022/08/25 04:14:46;;;;;;;;;;;;;;;;;;5090027;28;20044;-64
2022/08/25 04:17:17;;;;;;;15.02;6.05;;;;;;;;;;5089474;28;19920;-64
2022/08/25 04:19:47;;;;;;;14.80;5.25;;;;;;;;;;5089608;28;20063;-64
2022/08/25 04:22:18;;;;;;;17.98;6.15;;;;;;;;;;5089502;28;20051;-64
2022/08/25 04:24:49;;;;;;;14.98;6.70;;;;;;;;;;5079183;28;20408;-63
2022/08/25 04:27:19;;;;;;;13.77;5.72;;;;;;;;;;5071322;28;20507;-64
2022/08/25 04:29:50;;;;;;;14.80;5.88;;;;;;;;;;5070765;28;20052;-64
2022/08/25 04:32:20;;;;;;;12.10;5.43;;;;;;;;;;5072937;28;20060;-64
2022/08/25 04:34:51;;;;;;;15.90;6.03;;;;;;;;;;5073025;28;20057;-64
2022/08/25 04:37:21;;;;;;;11.43;5.40;;;;;;;;;;5072729;28;20044;-64
2022/08/25 04:39:52;;;;;;;17.67;6.75;;;;;;;;;;5052949;28;20398;-64
2022/08/25 04:42:22;;;;;;;20.45;6.07;;;;;;;;;;5002775;28;20147;-64
2022/08/25 04:44:53;;;;;;;14.05;5.93;;;;;;;;;;5020132;28;20056;-64
2022/08/25 04:47:24;;;;;;;15.98;5.75;;;;;;;;;;5052614;28;20103;-64
2022/08/25 04:49:56;;;;;;;11.27;5.53;;;;;;;;;;5053249;28;20045;-64
2022/08/25 04:52:26;;;;;;;12.00;5.68;;;;;;;;;;5032179;28;20064;-64
2022/08/25 04:54:57;;;;;;;16.27;6.45;;;;;;;;;;5032701;28;20057;-64
2022/08/25 04:57:27;;;;;;;12.13;5.65;;;;;;;;;;4999750;28;20536;-64
2022/08/25 04:59:57;;;;;;;14.10;5.65;;;;;;;;;;5016498;28;20064;-64
2022/08/25 05:02:27;;;;;;;15.13;6.60;;;;;;;;;;5032629;28;20054;-64
2022/08/25 05:04:58;;;;;;;16.70;6.05;;;;;;;;;;5016441;28;20057;-64
2022/08/25 05:07:29;;;;;;;17.65;5.72;;;;;;;;;;5032411;28;20057;-64
2022/08/25 05:09:59;;;;;;;15.48;5.72;;;;;;;;;;5032669;28;20069;-64
2022/08/25 05:12:30;;;;;;;12.63;5.78;;;;;;;;;;5034082;28;20045;-65
2022/08/25 05:15:48;;;;;;;16.75;6.30;;;;;;;;;;5052437;28;20044;-64
2022/08/25 05:17:51;;;;;;;12.82;5.68;;;;;;;;;;5065560;28;20060;-64
2022/08/25 05:20:29;;;;;;;13.15;5.03;;;;;;;;;;5072478;28;20504;-65
2022/08/25 05:23:00;;;;;;;11.13;5.13;;;;;;;;;;5038919;28;20057;-64
2022/08/25 05:25:30;;;;;;;13.63;5.55;;;;;;;;;;5072200;28;20511;-65
2022/08/25 05:28:01;;;;;;;14.20;6.07;;;;;;;;;;5011821;28;20422;-64
2022/08/25 05:30:32;;;;;;;12.65;5.88;;;;;;;;;;5025993;28;20064;-64
2022/08/25 05:33:02;;;;;;;17.40;6.28;;;;;;;;;;5048417;28;20409;-64
2022/08/25 05:35:33;;;;;;;13.35;5.60;;;;;;;;;;5032217;28;20053;-64
2022/08/25 05:38:04;;;;;;;17.48;5.85;;;;;;;;;;5048364;28;20057;-64
2022/08/25 05:40:43;;;;;;;14.25;5.45;;;;;;;;;;5046542;28;20054;-64
2022/08/25 05:43:14;;;;;;;15.18;5.85;;;;;;;;;;5031900;28;20041;-64
2022/08/25 05:45:45;;;;;;;13.38;5.82;;;;;;;;;;5032000;28;20053;-64
2022/08/25 05:48:15;;;;;;;13.85;5.95;;;;;;;;;;5064128;28;20054;-64
2022/08/25 05:51:06;;;;;;;13.68;5.10;;;;;;;;;;5031898;28;20169;-64
2022/08/25 05:53:41;;;;;;;10.73;4.97;;;;;;;;;;5031685;28;20509;-64
2022/08/25 05:56:12;;;;;;;11.48;5.22;;;;;;;;;;5048074;28;20117;-64
2022/08/25 05:58:44;;;;;;;12.27;5.72;;;;;;;;;;5031424;28;20437;-64
2022/08/25 06:04:19;;;;;;;16.80;5.57;;;;;;;;;;5031610;28;20049;-65
2022/08/25 06:06:52;;;;;;;13.88;6.68;;;;;;;;;;5073377;28;20063;-64
2022/08/25 06:09:23;;;;;;;12.60;6.03;;;;;;;;;;5073623;28;20052;-64
2022/08/25 06:11:54;;;;;;;13.13;5.57;;;;;;;;;;5087853;28;20053;-64
2022/08/25 06:14:26;;;;;;;14.80;5.93;;;;;;;;;;5073331;28;20040;-64
2022/08/25 06:16:56;;;;;;;12.85;5.93;;;;;;;;;;5073414;28;20484;-64
2022/08/25 06:19:26;;;;;;;14.07;5.97;;;;;;;;;;5073500;28;20404;-64
2022/08/25 06:21:57;;;;;;;13.27;6.00;;;;;;;;;;5073286;28;20041;-64
2022/08/25 06:24:29;;;;;;;13.57;6.43;;;;;;;;;;5073518;28;20409;-64
2022/08/25 06:26:59;;;;;;;16.48;6.00;;;;;;;;;;5073181;28;20044;-64
2022/08/25 06:29:29;;;;;;;17.95;6.47;;;;;;;;;;5073113;28;20040;-64
2022/08/25 06:32:00;;;;;;;12.40;5.55;;;;;;;;;;5072860;28;20041;-64
2022/08/25 06:34:30;;;;;;;18.15;5.97;;;;;;;;;;5054458;28;20056;-64
2022/08/25 06:37:00;;;;;;;19.00;5.95;;;;;;;;;;5087480;28;20388;-64
2022/08/25 06:39:30;;;;;;;12.85;6.05;;;;;;;;;;5072930;28;20412;-64
2022/08/25 06:42:01;;;;;;;13.15;5.63;;;;;;;;;;5072798;28;20044;-64
2022/08/25 06:44:31;;;;;;;16.98;6.05;;;;;;;;;;5072794;28;20052;-63
2022/08/25 06:47:02;;;;;;;11.40;5.65;;;;;;;;;;5070013;28;20310;-64
2022/08/25 06:49:32;;;;;;;17.83;5.28;;;;;;;;;;5020703;28;20052;-64
2022/08/25 06:52:04;;;;;;;10.68;5.03;;;;;;;;;;5069669;28;20068;-64
2022/08/25 06:54:34;;;;;;;18.40;6.50;;;;;;;;;;5070484;28;20044;-64
2022/08/25 06:57:06;;;;;;;19.23;5.78;;;;;;;;;;5020570;28;20048;-64
2022/08/25 06:59:37;;;;;;;14.57;5.75;;;;;;;;;;5053489;28;20049;-64
2022/08/25 07:02:09;;;;;;;15.10;5.75;;;;;;;;;;5054168;28;20061;-64
2022/08/25 07:04:40;;;;;;;16.98;5.90;;;;;;;;;;5030111;28;20057;-64
2022/08/25 07:07:10;;;;;;;13.65;6.55;;;;;;;;;;5030208;28;20057;-64
2022/08/25 07:09:40;;;;;;;12.95;5.55;;;;;;;;;;5030086;28;20089;-64
2022/08/25 07:12:10;;;;;;;10.57;5.38;;;;;;;;;;5030071;28;20049;-65
2022/08/25 07:14:41;;;;;;;15.32;5.75;;;;;;;;;;5014069;28;20045;-64
2022/08/25 07:17:31;;;;;;;20.35;5.75;;;;;;;;;;5029971;28;20052;-64
2022/08/25 07:20:02;;;;;;;20.35;6.40;;;;;;;;;;5030025;28;20060;-64
2022/08/25 07:22:32;;;;;;;15.55;5.60;;;;;;;;;;5010072;28;20052;-64
2022/08/25 07:25:03;;;;;;;14.38;5.75;;;;;;;;;;5023434;28;20054;-64
2022/08/25 07:27:33;;;;;;;13.20;5.55;;;;;;;;;;5029905;28;20054;-64
2022/08/25 07:30:06;;;;;;;13.07;5.80;;;;;;;;;;5029947;28;20425;-64
2022/08/25 07:32:39;;;;;;;12.98;5.95;;;;;;;;;;5030070;28;20501;-64
2022/08/25 07:35:17;;;;;;;12.30;5.75;;;;;;;;;;5029957;28;20057;-64
2022/08/25 07:37:57;;;;;;;13.10;5.65;;;;;;;;;;5029778;28;20057;-64
2022/08/25 07:40:36;;;;;;;20.90;6.00;;;;;;;;;;4990324;28;20054;-64
2022/08/25 07:43:11;;;;;;;12.63;5.40;;;;;;;;;;4990526;28;20062;-64
2022/08/25 07:45:42;;;;;;;11.73;5.28;;;;;;;;;;4990291;28;20059;-64
2022/08/25 07:48:20;;;;;;;11.85;5.60;;;;;;;;;;4990932;28;20065;-64
2022/08/25 07:50:51;;;;;;;15.45;5.80;;;;;;;;;;4990127;28;20053;-64
2022/08/25 07:53:21;;;;;;;13.70;6.03;;;;;;;;;;4990026;28;20066;-64
2022/08/25 07:55:51;;;;;;;16.00;6.40;;;;;;;;;;4990289;28;20061;-64
2022/08/25 07:58:22;;;;;;;13.32;5.50;;;;;;;;;;4990188;28;20066;-64
2022/08/25 08:00:53;;;;;;;12.63;5.63;;;;;;;;;;5037399;28;20053;-64
2022/08/25 08:03:23;;;;;;;18.23;5.18;;;;;;;;;;5016298;28;20049;-64
2022/08/25 08:06:16;;;;;;;12.38;5.63;;;;;;;;;;5053494;28;20053;-64
2022/08/25 08:08:48;;;;;;;15.65;5.72;;;;;;;;;;5004010;28;20060;-64
2022/08/25 08:11:29;;;;;;;14.93;5.95;;;;;;;;;;5037637;28;20057;-64
2022/08/25 08:14:00;;;;;;;11.70;5.45;;;;;;;;;;5053411;28;20052;-64
2022/08/25 08:16:31;;;;;;;13.60;5.43;;;;;;;;;;5053303;28;20060;-64
2022/08/25 08:19:04;;;;;;;12.57;5.70;;;;;;;;;;5022448;28;20412;-64
2022/08/25 08:21:36;;;;;;;13.82;5.60;;;;;;;;;;5052913;28;20072;-64
2022/08/25 08:24:06;;;;;;;16.38;5.78;;;;;;;;;;5036502;28;20049;-64
2022/08/25 08:26:57;;;;;;;15.07;6.30;;;;;;;;;;5053162;28;20642;-64
2022/08/25 08:29:28;;;;;;;10.70;4.75;;;;;;;;;;5053074;28;20056;-64
2022/08/25 08:32:00;;;;;;;14.55;5.88;;;;;;;;;;5055068;28;20396;-64
2022/08/25 08:34:31;;;;;;;14.45;5.43;;;;;;;;;;5073025;28;20056;-63
2022/08/25 08:37:01;;;;;;;14.15;5.97;;;;;;;;;;5039916;28;20064;-64
2022/08/25 08:39:31;;;;;;;11.68;5.60;;;;;;;;;;5072964;28;20071;-64
2022/08/25 08:42:31;;;;;;;14.13;5.63;;;;;;;;;;5072569;28;20123;-64
2022/08/25 08:45:32;;;;;;;11.68;5.15;;;;;;;;;;5072767;28;20578;-64
2022/08/25 08:48:41;;;;;;;13.35;5.07;;;;;;;;;;5032676;28;20056;-64
2022/08/25 08:51:25;;;;;;;13.70;5.53;;;;;;;;;;5032369;28;20061;-64
2022/08/25 08:54:13;;;;;;;12.38;5.32;;;;;;;;;;5032447;28;20096;-64
2022/08/25 08:56:49;;;;;;;14.65;5.50;;;;;;;;;;5032603;28;20056;-64
2022/08/25 08:59:28;;;;;;;12.30;5.28;;;;;;;;;;5032741;28;20062;-63
2022/08/25 09:02:01;;;;;;;12.20;5.72;;;;;;;;;;5015722;28;20041;-64
2022/08/25 09:04:38;;;;;;;12.93;5.40;;;;;;;;;;5032554;28;20089;-64
2022/08/25 09:07:18;;;;;;;14.98;5.25;;;;;;;;;;5052112;28;20052;-64
2022/08/25 09:09:50;;;;;;;12.88;5.10;;;;;;;;;;5052243;28;20064;-64
2022/08/25 09:12:43;;;;;;;18.50;6.10;;;;;;;;;;5035578;28;20056;-65
2022/08/25 09:16:53;;;;;;;12.32;5.28;;;;;;;;;;5034942;28;20045;-64
2022/08/25 09:18:43;;;;;;;16.73;6.55;;;;;;;;;;5052098;28;20060;-64
2022/08/25 09:21:53;;;;;;;17.63;6.20;;;;;;;;;;5002750;28;20057;-64
2022/08/25 09:24:42;;;;;;;15.00;5.75;;;;;;;;;;4973404;28;20511;-64
2022/08/25 09:27:27;;;;;;;16.27;5.55;;;;;;;;;;4973243;28;20057;-64
2022/08/25 09:30:08;;;;;;;17.17;5.85;;;;;;;;;;5010967;28;20061;-64
2022/08/25 09:32:41;;;;;;;14.45;5.93;;;;;;;;;;5012335;28;20054;-65
2022/08/25 09:35:26;;;;;;;11.65;5.20;;;;;;;;;;5012105;28;20058;-64
2022/08/25 09:38:03;;;;;;;13.88;5.90;;;;;;;;;;5031756;28;20050;-65
2022/08/25 09:40:37;;;;;;;16.33;6.32;;;;;;;;;;5031805;28;20060;-64
2022/08/25 09:43:31;;;;;;;14.27;5.72;;;;;;;;;;5000117;28;20053;-64
2022/08/25 09:46:22;;;;;;;19.48;6.47;;;;;;;;;;5012152;28;20549;-64
2022/08/25 09:48:58;;;;;;;15.77;6.18;;;;;;;;;;5011996;28;20070;-64
2022/08/25 09:51:33;;;;;;;14.43;6.45;;;;;;;;;;5012015;28;20057;-64
2022/08/25 09:54:17;;;;;;;14.98;6.40;;;;;;;;;;5012009;28;20062;-64
2022/08/25 09:56:52;;;;;;;18.15;6.82;;;;;;;;;;5031468;28;20049;-64
2022/08/25 09:59:25;;;;;;;14.18;6.35;;;;;;;;;;5031594;28;20057;-64
2022/08/25 10:02:32;;;;;;;15.68;6.38;;;;;;;;;;5079102;28;20052;-64
2022/08/25 10:05:26;;;;;;;13.98;6.40;;;;;;;;;;5058237;28;20075;-64
2022/08/25 10:07:59;;;;;;;15.85;7.00;;;;;;;;;;5034313;28;20052;-64
2022/08/25 10:10:43;;;;;;;16.73;6.97;;;;;;;;;;5051189;28;20053;-66
2022/08/25 10:13:18;;;;;;;16.40;6.30;;;;;;;;;;5003089;28;20057;-65
2022/08/25 10:16:08;;;;;;;13.50;6.18;;;;;;;;;;5035230;28;20501;-64
2022/08/25 10:19:11;;;;;;;26.02;6.75;;;;;;;;;;5031094;28;20045;-65
2022/08/25 10:21:42;;;;;;;15.95;6.05;;;;;;;;;;4999469;28;20077;-65
2022/08/25 10:24:14;;;;;;;15.93;7.93;;;;;;;;;;4982048;28;20049;-64
2022/08/25 10:26:58;;;;;;;19.90;6.88;;;;;;;;;;4998717;28;20076;-65
2022/08/25 10:30:04;;;;;;;15.48;6.90;;;;;;;;;;5030935;28;20490;-64
2022/08/25 10:32:59;;;;;;;14.23;6.60;;;;;;;;;;5003819;28;20069;-64
2022/08/25 10:35:56;;;;;;;16.48;6.70;;;;;;;;;;5031050;28;20054;-65
2022/08/25 10:38:37;;;;;;;16.50;7.30;;;;;;;;;;5030959;28;20053;-65
2022/08/25 10:41:44;;;;;;;20.35;7.95;;;;;;;;;;5030815;28;20049;-65
2022/08/25 10:47:38;;;;;;;16.27;7.43;;;;;;;;;;5033763;28;20060;-65
2022/08/25 10:50:27;;;;;;;16.95;6.57;;;;;;;;;;5010631;28;20057;-66
2022/08/25 10:53:27;;;;;;;19.98;7.03;;;;;;;;;;5010660;28;20065;-66
2022/08/25 10:56:24;;;;;;;15.23;7.10;;;;;;;;;;5010606;28;20576;-66
2022/08/25 10:59:16;;;;;;;16.23;6.63;;;;;;;;;;5010744;28;20398;-65
2022/08/25 11:02:29;;;;;;;17.90;6.13;;;;;;;;;;4994681;28;20544;-65
2022/08/25 11:05:46;;;;;;;14.57;5.72;;;;;;;;;;4990720;28;20057;-64
2022/08/25 11:08:32;;;;;;;16.23;6.18;;;;;;;;;;4914010;29;20052;-65
2022/08/25 11:11:38;;;;;;;14.50;6.80;;;;;;;;;;4894790;29;20052;-64
2022/08/25 11:14:38;;;;;;;17.63;7.75;;;;;;;;;;4876610;29;20135;-65
2022/08/25 11:17:24;;;;;;;19.17;6.63;;;;;;;;;;4876315;29;20542;-65
2022/08/25 11:20:02;;;;;;;21.35;7.07;;;;;;;;;;4876374;29;20461;-65
2022/08/25 11:22:46;;;;;;;16.95;6.53;;;;;;;;;;4876317;29;20116;-65
2022/08/25 11:25:25;;;;;;;16.45;6.50;;;;;;;;;;4876368;29;20057;-65
2022/08/25 11:28:17;;;;;;;;;;;;;;;;;;4886883;29;20052;-65
2022/08/25 11:30:52;;;;;;;14.15;7.50;;;;;;;;;;4894903;29;20295;-65
2022/08/25 11:33:25;;;;;;;12.82;6.60;;;;;;;;;;4894630;29;20059;-64
2022/08/25 11:36:25;;;;;;;12.68;6.43;;;;;;;;;;4864023;29;20060;-65
2022/08/25 11:39:22;;;;;;;13.88;5.82;;;;;;;;;;4894683;29;20052;-65
2022/08/25 11:41:58;;;;;;;16.48;6.57;;;;;;;;;;4891377;29;20072;-65
2022/08/25 11:44:37;;;;;;;19.38;7.78;;;;;;;;;;4921240;29;20068;-65
2022/08/25 11:47:47;;;;;;;17.58;7.93;;;;;;;;;;4932752;29;20512;-65
2022/08/25 11:50:31;;;;;;;;;;;;;;;;;;4982204;28;20079;-65
2022/08/25 11:53:23;;;;;;;19.08;8.30;;;;;;;;;;4990078;28;19921;-65
2022/08/25 11:56:18;;;;;;;21.38;8.00;;;;;;;;;;4897299;29;20044;-65
2022/08/25 11:58:51;;;;;;;21.80;8.70;;;;;;;;;;4838911;29;20058;-65
2022/08/25 12:01:39;;;;;;;21.55;7.90;;;;;;;;;;4808450;29;20053;-66
2022/08/25 12:04:30;;;;;;;16.88;7.95;;;;;;;;;;4808626;29;20064;-66
2022/08/25 12:07:00;;;;;;;18.58;7.78;;;;;;;;;;4838866;29;20057;-66
2022/08/25 12:09:32;;;;;;;20.58;8.38;;;;;;;;;;4838911;29;20081;-66
2022/08/25 12:12:30;;;;;;;24.52;8.55;;;;;;;;;;4855818;29;20062;-66
2022/08/25 12:15:21;;;;;;;24.02;8.40;;;;;;;;;;4820307;29;20100;-66
2022/08/25 12:18:07;;;;;;;19.10;7.68;;;;;;;;;;4820812;29;20787;-66
2022/08/25 12:20:55;;;;;;;17.33;6.65;;;;;;;;;;4775290;29;20058;-66
2022/08/25 12:23:42;;;;;;;18.73;7.20;;;;;;;;;;4820321;29;20058;-66
2022/08/25 12:26:46;;;;;;;14.00;6.03;;;;;;;;;;4790109;29;20058;-66
2022/08/25 12:29:44;;;;;;;18.33;8.13;;;;;;;;;;4857321;29;20647;-66
2022/08/25 12:32:17;;;;;;;15.95;7.13;;;;;;;;;;4859260;29;20050;-66
2022/08/25 12:35:09;;;;;;;28.23;14.18;;;;;;;;;;4909357;29;20060;-66
2022/08/25 12:38:03;;;;;;;31.95;14.93;;;;;;;;;;4932448;29;20412;-66
2022/08/25 12:40:44;;;;;;;32.90;16.25;;;;;;;;;;4931858;29;20056;-66
2022/08/25 12:43:32;;;;;;;17.98;8.45;;;;;;;;;;4947668;29;20055;-66
2022/08/25 12:46:26;;;;;;;;;;;;;;;;;;4932554;29;20067;-66
2022/08/25 12:48:59;;;;;;;20.58;10.18;;;;;;;;;;4932114;29;19923;-66
2022/08/25 12:51:35;;;;;;;14.15;5.70;;;;;;;;;;4953563;28;20062;-64
2022/08/25 12:54:35;;;;;;;22.92;10.88;;;;;;;;;;5012993;28;20529;-65
2022/08/25 12:57:33;;;;;;;14.38;6.63;;;;;;;;;;5012969;28;20057;-65
2022/08/25 13:00:44;;;;;;;16.60;7.05;;;;;;;;;;5017298;28;20042;-65
2022/08/25 13:03:36;;;;;;;;;;;;;;;;;;5073240;28;20054;-65
2022/08/25 13:06:13;;;;;;;;;;;;;;;;;;5072751;28;19920;-65
2022/08/25 13:09:24;;;;;;;7.60;3.78;;;;;;;;;;5072622;28;19921;-65
2022/08/25 13:12:07;;;;;;;12.00;6.20;;;;;;;;;;5048932;28;20523;-65
2022/08/25 13:14:43;;;;;;;8.73;3.88;;;;;;;;;;5032721;28;20049;-65
2022/08/25 13:17:26;;;;;;;8.63;5.03;;;;;;;;;;5034308;28;20091;-65
2022/08/25 13:20:17;;;;;;;8.52;4.05;;;;;;;;;;5052459;28;20049;-65
2022/08/25 13:22:50;;;;;;;8.18;4.30;;;;;;;;;;5052188;28;20050;-65
2022/08/25 13:25:28;;;;;;;9.98;4.15;;;;;;;;;;5052236;28;20049;-65
2022/08/25 13:28:05;;;;;;;13.55;5.55;;;;;;;;;;5051909;28;20057;-65
2022/08/25 13:30:39;;;;;;;7.53;3.33;;;;;;;;;;5052227;28;20064;-65
2022/08/25 13:33:21;;;;;;;10.07;4.18;;;;;;;;;;5019115;28;20053;-66
2022/08/25 13:38:46;;;;;;;7.97;3.60;;;;;;;;;;5031712;28;20046;-65
2022/08/25 13:41:23;;;;;;;;;;;;;;;;;;5032198;28;20058;-65
2022/08/25 13:43:57;;;;;;;10.73;4.07;;;;;;;;;;4967418;28;19921;-65
2022/08/25 13:46:31;;;;;;;11.20;4.18;;;;;;;;;;5019972;28;20060;-66
2022/08/25 13:49:08;;;;;;;7.72;3.60;;;;;;;;;;5071787;28;20055;-65
2022/08/25 13:51:52;;;;;;;6.45;3.40;;;;;;;;;;5070939;28;20049;-65
2022/08/25 13:54:37;;;;;;;7.60;3.75;;;;;;;;;;5038216;28;20057;-65
2022/08/25 13:57:28;;;;;;;6.93;3.40;;;;;;;;;;5071542;28;20060;-65
2022/08/25 14:00:08;;;;;;;7.75;3.88;;;;;;;;;;5055128;28;20127;-66
2022/08/25 14:02:43;;;;;;;8.00;5.43;;;;;;;;;;5051110;28;20440;-65
2022/08/25 14:05:35;;;;;;;7.85;3.47;;;;;;;;;;5051469;28;20053;-65
2022/08/25 14:08:27;;;;;;;8.68;4.53;;;;;;;;;;5051362;28;20053;-65
2022/08/25 14:11:24;;;;;;;7.82;4.13;;;;;;;;;;5051092;28;20045;-65
2022/08/25 14:14:11;;;;;;;10.73;4.82;;;;;;;;;;5051350;28;20057;-66
2022/08/25 14:16:57;;;;;;;8.95;3.30;;;;;;;;;;5063474;28;20064;-65
2022/08/25 14:19:46;;;;;;;8.45;3.50;;;;;;;;;;5054505;28;20048;-65
2022/08/25 14:22:16;;;;;;;8.93;3.63;;;;;;;;;;5071127;28;20067;-66
2022/08/25 14:24:47;;;;;;;8.30;4.43;;;;;;;;;;5071017;28;20056;-66
2022/08/25 14:27:18;;;;;;;7.70;3.45;;;;;;;;;;5070850;28;20056;-66
2022/08/25 14:29:48;;;;;;;7.45;3.70;;;;;;;;;;5071198;28;20064;-66
2022/08/25 14:32:21;;;;;;;8.43;3.97;;;;;;;;;;5070950;28;20044;-66
2022/08/25 14:34:54;;;;;;;8.27;4.15;;;;;;;;;;5054557;28;20056;-66
2022/08/25 14:37:24;;;;;;;6.93;3.35;;;;;;;;;;5070388;28;20052;-66
2022/08/25 14:39:56;;;;;;;8.15;3.58;;;;;;;;;;5070647;28;20052;-66
2022/08/25 14:42:27;;;;;;;8.27;3.90;;;;;;;;;;5070809;28;20071;-66
2022/08/25 14:44:57;;;;;;;8.05;3.60;;;;;;;;;;5070732;28;20055;-66
2022/08/25 14:47:30;;;;;;;7.40;3.90;;;;;;;;;;5070746;28;20571;-66
2022/08/25 14:50:01;;;;;;;7.60;3.70;;;;;;;;;;5070265;28;20048;-66
2022/08/25 14:52:32;;;;;;;7.65;3.92;;;;;;;;;;5070350;28;20518;-66
2022/08/25 14:55:03;;;;;;;7.53;4.70;;;;;;;;;;5070379;28;20158;-66
2022/08/25 14:57:34;;;;;;;7.40;3.38;;;;;;;;;;5037333;28;20411;-67
2022/08/25 15:00:10;;;;;;;6.22;3.28;;;;;;;;;;5050275;28;20045;-67
2022/08/25 15:02:42;;;;;;;5.40;3.15;;;;;;;;;;5001177;28;20536;-66
2022/08/25 15:05:21;;;;;;;6.65;3.63;;;;;;;;;;5050360;28;20053;-66
2022/08/25 15:10:42;;;;;;;;;;;;;;;;;;5050606;28;20436;-66
2022/08/25 15:13:13;;;;;;;7.03;3.75;;;;;;;;;;5049576;28;19924;-66
2022/08/25 15:15:44;;;;;;;7.80;3.78;;;;;;;;;;5049806;28;20065;-67
2022/08/25 15:18:21;;;;;;;7.38;3.30;;;;;;;;;;5049719;28;20049;-67
2022/08/25 15:20:52;;;;;;;7.65;3.50;;;;;;;;;;5029844;28;20565;-67
2022/08/25 15:23:25;;;;;;;6.57;3.75;;;;;;;;;;5030269;28;20106;-67
2022/08/25 15:25:55;;;;;;;9.35;3.75;;;;;;;;;;5029841;28;20058;-66
2022/08/25 15:28:26;;;;;;;8.68;3.80;;;;;;;;;;5029927;28;20501;-67
2022/08/25 15:30:57;;;;;;;6.72;3.97;;;;;;;;;;5030040;28;20049;-67
2022/08/25 15:33:27;;;;;;;10.75;3.88;;;;;;;;;;4990149;28;20057;-67
2022/08/25 15:35:58;;;;;;;6.25;3.60;;;;;;;;;;4990142;28;20087;-66
2022/08/25 15:38:30;;;;;;;8.40;3.47;;;;;;;;;;4968336;28;20071;-67
2022/08/25 15:41:01;;;;;;;7.38;3.67;;;;;;;;;;4951782;29;20058;-66
2022/08/25 15:43:33;;;;;;;7.25;3.40;;;;;;;;;;4951967;29;20082;-67
2022/08/25 15:46:05;;;;;;;6.38;3.33;;;;;;;;;;4965652;28;20062;-66